Time;durP1;ratioP1;P1;durP2;ratioP2;P2;SDS_P1;SDS_P2;PMS_P1;PMS_P2;Temp;Humidity;BMP_temperature;BMP_pressure;BME280_temperature;BME280_humidity;BME280_pressure;Samples;Min_cycle;Max_cycle;Signal;HPM_P1;HPM_P2
2021/07/16 00:00:58;;;;;;;0.57;0.50;;;15.60;99.90;;;;;;2048894;28;20187;-71
2021/07/16 00:01:59;;;;;;;0.30;0.30;;;15.60;99.90;;;;;;2057487;28;20262;-72
2021/07/16 00:03:00;;;;;;;0.50;0.50;;;15.60;99.90;;;;;;2056846;28;20179;-72
2021/07/16 00:04:01;;;;;;;0.50;0.50;;;15.60;99.90;;;;;;2056967;28;20250;-72
2021/07/16 00:05:02;;;;;;;0.60;0.60;;;15.60;99.90;;;;;;2064988;28;20190;-71
2021/07/16 00:06:03;;;;;;;0.55;0.55;;;15.60;99.90;;;;;;2064819;28;20178;-71
2021/07/16 00:07:04;;;;;;;0.67;0.60;;;15.60;99.90;;;;;;2064943;28;20236;-71
2021/07/16 00:08:05;;;;;;;0.30;0.30;;;15.60;99.90;;;;;;2064893;28;20183;-71
2021/07/16 00:09:07;;;;;;;0.32;0.32;;;15.60;99.90;;;;;;2064866;28;20178;-71
2021/07/16 00:10:12;;;;;;;0.52;0.50;;;15.50;99.90;;;;;;2056442;28;20191;-71
2021/07/16 00:11:13;;;;;;;0.50;0.50;;;15.50;99.90;;;;;;2057349;28;20262;-71
2021/07/16 00:12:15;;;;;;;0.40;0.40;;;15.50;99.90;;;;;;2064724;28;20263;-71
2021/07/16 00:13:15;;;;;;;0.40;0.40;;;15.60;99.90;;;;;;2056956;28;20868;-71
2021/07/16 00:14:16;;;;;;;0.50;0.50;;;15.50;99.90;;;;;;2057326;28;20233;-72
2021/07/16 00:15:20;;;;;;;0.40;0.40;;;15.50;99.90;;;;;;2056867;28;20739;-71
2021/07/16 00:16:20;;;;;;;0.80;0.80;;;15.50;99.90;;;;;;2048882;29;20188;-71
2021/07/16 00:17:21;;;;;;;0.40;0.40;;;15.50;99.90;;;;;;2056859;28;20712;-71
2021/07/16 00:18:22;;;;;;;0.82;0.73;;;15.60;99.90;;;;;;2064707;28;20179;-71
2021/07/16 00:19:23;;;;;;;0.40;0.40;;;15.50;99.90;;;;;;2064743;28;20811;-71
2021/07/16 00:20:23;;;;;;;0.37;0.30;;;15.50;99.90;;;;;;2064602;28;20213;-71
2021/07/16 00:21:24;;;;;;;0.53;0.53;;;15.50;99.90;;;;;;2057396;28;20247;-71
2021/07/16 00:22:26;;;;;;;0.63;0.50;;;15.50;99.90;;;;;;2064780;28;20174;-71
2021/07/16 00:23:28;;;;;;;0.50;0.50;;;15.50;99.90;;;;;;2064714;28;20170;-71
2021/07/16 00:24:28;;;;;;;0.40;0.40;;;15.50;99.90;;;;;;2064743;28;20429;-71
2021/07/16 00:25:29;;;;;;;0.47;0.47;;;15.50;99.90;;;;;;2064804;28;20194;-72
2021/07/16 00:26:30;;;;;;;0.40;0.40;;;15.50;99.90;;;;;;2064742;28;20182;-71
2021/07/16 00:27:31;;;;;;;0.60;0.57;;;15.50;99.90;;;;;;2064775;28;20229;-72
2021/07/16 00:28:31;;;;;;;0.50;0.40;;;15.50;99.90;;;;;;2064878;28;20194;-71
2021/07/16 00:29:32;;;;;;;0.40;0.40;;;15.50;99.90;;;;;;2064620;28;20717;-71
2021/07/16 00:30:35;;;;;;;0.53;0.53;;;15.50;99.90;;;;;;2056507;28;20179;-71
2021/07/16 00:31:37;;;;;;;0.40;0.40;;;15.50;99.90;;;;;;2064648;28;20638;-71
2021/07/16 00:32:38;;;;;;;0.53;0.50;;;15.50;99.90;;;;;;2064573;28;20261;-72
2021/07/16 00:33:39;;;;;;;0.73;0.70;;;15.40;99.90;;;;;;2064549;28;20971;-71
2021/07/16 00:34:40;;;;;;;0.40;0.40;;;15.40;99.90;;;;;;2064666;28;20524;-71
2021/07/16 00:35:41;;;;;;;0.57;0.57;;;15.40;99.90;;;;;;2057076;28;20433;-71
2021/07/16 00:36:41;;;;;;;0.60;0.60;;;15.40;99.90;;;;;;2057273;28;20179;-71
2021/07/16 00:37:42;;;;;;;1.00;0.70;;;15.40;99.90;;;;;;2064796;28;20181;-71
2021/07/16 00:38:44;;;;;;;0.53;0.53;;;15.40;99.90;;;;;;2064669;28;20185;-71
2021/07/16 00:39:45;;;;;;;0.50;0.50;;;15.40;99.90;;;;;;2057111;28;20250;-71
2021/07/16 00:40:46;;;;;;;0.57;0.57;;;15.40;99.90;;;;;;2064389;28;20445;-71
2021/07/16 00:41:46;;;;;;;1.20;0.80;;;15.30;99.90;;;;;;2064396;28;20285;-71
2021/07/16 00:42:47;;;;;;;4.13;0.73;;;15.30;99.90;;;;;;2057149;28;20274;-71
2021/07/16 00:43:49;;;;;;;0.47;0.47;;;15.40;99.90;;;;;;2064530;28;20190;-72
2021/07/16 00:44:49;;;;;;;0.40;0.40;;;15.40;99.90;;;;;;2056547;28;20187;-71
2021/07/16 00:45:51;;;;;;;0.37;0.37;;;15.40;99.90;;;;;;2056544;28;20931;-72
2021/07/16 00:46:52;;;;;;;0.77;0.77;;;15.40;99.90;;;;;;2056381;28;20191;-71
2021/07/16 00:47:53;;;;;;;1.17;0.70;;;15.30;99.90;;;;;;2056606;28;20217;-72
2021/07/16 00:48:53;;;;;;;0.50;0.50;;;15.40;99.90;;;;;;2064596;28;20182;-71
2021/07/16 00:49:54;;;;;;;0.40;0.40;;;15.30;99.90;;;;;;2057135;28;20206;-72
2021/07/16 00:50:55;;;;;;;0.40;0.40;;;15.30;99.90;;;;;;2064319;28;20206;-72
2021/07/16 00:51:56;;;;;;;0.40;0.40;;;15.20;99.90;;;;;;2064615;28;20692;-71
2021/07/16 00:52:57;;;;;;;0.30;0.30;;;15.20;99.90;;;;;;2064562;28;20563;-71
2021/07/16 00:53:58;;;;;;;0.30;0.30;;;15.20;99.90;;;;;;2064360;28;20202;-72
2021/07/16 00:54:58;;;;;;;0.57;0.57;;;15.10;99.90;;;;;;2064548;28;20273;-72
2021/07/16 00:55:59;;;;;;;0.43;0.43;;;15.10;99.90;;;;;;2056359;28;20262;-71
2021/07/16 00:57:00;;;;;;;0.57;0.57;;;15.10;99.90;;;;;;2048575;29;20188;-72
2021/07/16 00:58:02;;;;;;;0.70;0.70;;;15.00;99.90;;;;;;2056386;28;20183;-72
2021/07/16 00:59:05;;;;;;;0.60;0.60;;;15.00;99.90;;;;;;2064437;28;20186;-72
2021/07/16 01:00:08;;;;;;;0.38;0.38;;;15.00;99.90;;;;;;2048253;28;20239;-71
2021/07/16 01:01:09;;;;;;;0.65;0.65;;;15.00;99.90;;;;;;2048919;28;20192;-71
2021/07/16 01:02:12;;;;;;;0.50;0.50;;;15.00;99.90;;;;;;2064442;28;20183;-71
2021/07/16 01:03:12;;;;;;;8.77;0.70;;;15.00;99.90;;;;;;2064220;28;20233;-71
2021/07/16 01:04:14;;;;;;;0.30;0.30;;;14.90;99.90;;;;;;2056382;28;20234;-72
2021/07/16 01:05:17;;;;;;;0.60;0.60;;;14.90;99.90;;;;;;2064488;28;20846;-71
2021/07/16 01:06:18;;;;;;;0.60;0.60;;;14.90;99.90;;;;;;2064235;28;20933;-71
2021/07/16 01:07:19;;;;;;;0.50;0.50;;;14.90;99.90;;;;;;2064376;28;20186;-71
2021/07/16 01:08:20;;;;;;;0.57;0.57;;;14.90;99.90;;;;;;2064067;28;20582;-71
2021/07/16 01:09:21;;;;;;;0.40;0.40;;;14.90;99.90;;;;;;2056328;28;20187;-71
2021/07/16 01:10:23;;;;;;;0.90;0.90;;;14.90;99.90;;;;;;2048100;29;20183;-70
2021/07/16 01:11:24;;;;;;;0.40;0.40;;;14.90;99.90;;;;;;2064445;28;20201;-71
2021/07/16 01:12:25;;;;;;;0.67;0.67;;;14.90;99.90;;;;;;2064433;28;20182;-71
2021/07/16 01:13:26;;;;;;;0.63;0.63;;;14.80;99.90;;;;;;2048480;29;20190;-71
2021/07/16 01:14:26;;;;;;;0.80;0.80;;;14.80;99.90;;;;;;2056201;28;20266;-71
2021/07/16 01:15:32;;;;;;;0.40;0.40;;;14.80;99.90;;;;;;2064468;28;20477;-70
2021/07/16 01:16:32;;;;;;;0.60;0.60;;;14.80;99.90;;;;;;2057024;28;20163;-71
2021/07/16 01:17:33;;;;;;;0.40;0.40;;;14.80;99.90;;;;;;2056331;28;20178;-71
2021/07/16 01:18:34;;;;;;;0.50;0.50;;;14.80;99.90;;;;;;2056424;28;20563;-71
2021/07/16 01:19:58;;;;;;;0.53;0.53;;;14.80;99.90;;;;;;2064278;28;20179;-71
2021/07/16 01:20:58;;;;;;;0.60;0.60;;;14.80;99.90;;;;;;2053141;28;20431;-71
2021/07/16 01:22:02;;;;;;;0.77;0.47;;;14.70;99.90;;;;;;2056385;28;20614;-71
2021/07/16 01:23:15;;;;;;;0.50;0.50;;;14.70;99.90;;;;;;2055946;28;20273;-71
2021/07/16 01:24:16;;;;;;;0.47;0.47;;;14.60;99.90;;;;;;2050122;28;20674;-70
2021/07/16 01:25:20;;;;;;;0.50;0.50;;;14.60;99.90;;;;;;2064273;28;20192;-71
2021/07/16 01:26:21;;;;;;;0.32;0.32;;;14.60;99.90;;;;;;2063932;28;20179;-71
2021/07/16 01:27:23;;;;;;;0.40;0.40;;;14.60;99.90;;;;;;2064328;28;20217;-71
2021/07/16 01:28:23;;;;;;;1.10;1.10;;;14.50;99.90;;;;;;2056211;28;20187;-71
2021/07/16 01:29:24;;;;;;;0.40;0.40;;;14.50;99.90;;;;;;2048381;29;20175;-71
2021/07/16 01:30:29;;;;;;;0.30;0.30;;;14.50;99.90;;;;;;2068331;28;20711;-70
2021/07/16 01:31:31;;;;;;;0.40;0.40;;;14.40;99.90;;;;;;2072028;28;20193;-71
2021/07/16 01:32:32;;;;;;;0.50;0.50;;;14.30;99.90;;;;;;2064486;28;20180;-71
2021/07/16 01:33:33;;;;;;;0.47;0.47;;;14.30;99.90;;;;;;2064286;28;20181;-71
2021/07/16 01:34:35;;;;;;;2.05;0.43;;;14.30;99.90;;;;;;2065018;28;20187;-70
2021/07/16 01:35:36;;;;;;;4.03;0.82;;;14.20;99.90;;;;;;2072296;28;20178;-71
2021/07/16 01:36:36;;;;;;;0.70;0.70;;;14.20;99.90;;;;;;2072532;28;20225;-71
2021/07/16 01:37:39;;;;;;;0.30;0.30;;;14.20;99.90;;;;;;2072393;28;20796;-71
2021/07/16 01:38:40;;;;;;;0.70;0.70;;;14.20;99.90;;;;;;2064037;28;20218;-70
2021/07/16 01:39:41;;;;;;;0.47;0.47;;;14.10;99.90;;;;;;2064231;28;20696;-71
2021/07/16 01:40:42;;;;;;;0.30;0.30;;;14.10;99.90;;;;;;2071891;28;20258;-70
2021/07/16 01:41:43;;;;;;;0.40;0.40;;;14.00;99.90;;;;;;2063536;28;20270;-71
2021/07/16 01:42:51;;;;;;;0.60;0.60;;;14.00;99.90;;;;;;2064108;28;20190;-70
2021/07/16 01:43:52;;;;;;;0.38;0.38;;;14.00;99.90;;;;;;2064321;28;20170;-71
2021/07/16 01:44:52;;;;;;;0.33;0.33;;;14.00;99.90;;;;;;2064800;28;20178;-70
2021/07/16 01:45:53;;;;;;;0.50;0.50;;;14.00;99.90;;;;;;2064730;28;20187;-71
2021/07/16 01:46:54;;;;;;;0.60;0.57;;;13.90;99.90;;;;;;2064233;28;20182;-71
2021/07/16 01:48:05;;;;;;;0.30;0.30;;;13.90;99.90;;;;;;2064226;28;20224;-71
2021/07/16 01:49:06;;;;;;;0.73;0.68;;;13.90;99.90;;;;;;2056058;28;20175;-71
2021/07/16 01:50:08;;;;;;;0.73;0.73;;;13.90;99.90;;;;;;2055933;28;20233;-71
2021/07/16 01:51:08;;;;;;;0.52;0.52;;;13.90;99.90;;;;;;2064861;28;20192;-71
2021/07/16 01:52:09;;;;;;;0.43;0.43;;;13.90;99.90;;;;;;2072110;28;20561;-71
2021/07/16 01:53:13;;;;;;;0.63;0.40;;;13.90;99.90;;;;;;2072310;28;20200;-71
2021/07/16 01:54:13;;;;;;;0.63;0.63;;;13.90;99.90;;;;;;2056045;28;20256;-71
2021/07/16 01:55:17;;;;;;;0.37;0.37;;;13.90;99.90;;;;;;2056185;28;20178;-71
2021/07/16 01:56:19;;;;;;;0.60;0.60;;;13.80;99.90;;;;;;2072155;28;20193;-71
2021/07/16 01:57:19;;;;;;;2.55;0.60;;;13.80;99.90;;;;;;2064003;28;20705;-71
2021/07/16 01:58:20;;;;;;;0.87;0.60;;;13.80;99.90;;;;;;2056088;28;20179;-70
2021/07/16 01:59:21;;;;;;;0.67;0.67;;;13.90;99.90;;;;;;2072199;28;20565;-71
2021/07/16 02:00:31;;;;;;;0.93;0.90;;;13.80;99.90;;;;;;2071995;28;20201;-71
2021/07/16 02:01:32;;;;;;;0.57;0.55;;;13.80;99.90;;;;;;2064283;28;20240;-71
2021/07/16 02:02:32;;;;;;;0.63;0.63;;;13.80;99.90;;;;;;2064650;28;20265;-70
2021/07/16 02:03:33;;;;;;;1.17;0.70;;;13.80;99.90;;;;;;2064720;28;20178;-71
2021/07/16 02:04:34;;;;;;;1.30;0.83;;;13.80;99.90;;;;;;2072281;28;20170;-73
2021/07/16 02:05:37;;;;;;;0.87;0.87;;;13.80;99.90;;;;;;2072274;28;20178;-71
2021/07/16 02:06:39;;;;;;;0.47;0.47;;;13.80;99.90;;;;;;2055997;28;20175;-71
2021/07/16 02:07:39;;;;;;;0.50;0.50;;;13.80;99.90;;;;;;2056209;28;20179;-71
2021/07/16 02:08:45;;;;;;;0.83;0.83;;;13.80;99.90;;;;;;2064574;28;20636;-71
2021/07/16 02:09:45;;;;;;;0.60;0.60;;;13.80;99.90;;;;;;2064772;28;20530;-71
2021/07/16 02:10:54;;;;;;;0.43;0.43;;;13.80;99.90;;;;;;2064262;28;20277;-71
2021/07/16 02:11:57;;;;;;;1.13;1.05;;;13.80;99.90;;;;;;2056153;28;20206;-71
2021/07/16 02:12:59;;;;;;;0.85;0.85;;;13.80;99.90;;;;;;2056489;28;20207;-71
2021/07/16 02:14:01;;;;;;;0.40;0.40;;;13.70;99.90;;;;;;2055980;28;20671;-71
2021/07/16 02:15:20;;;;;;;0.63;0.63;;;13.70;99.90;;;;;;2055968;28;20176;-72
2021/07/16 02:16:20;;;;;;;0.40;0.40;;;13.60;99.90;;;;;;2066613;28;20174;-71
2021/07/16 02:17:21;;;;;;;0.60;0.60;;;13.60;99.90;;;;;;2072166;28;20262;-71
2021/07/16 02:18:23;;;;;;;1.33;1.23;;;13.60;99.90;;;;;;2064741;28;20208;-73
2021/07/16 02:19:23;;;;;;;0.77;0.77;;;13.60;99.90;;;;;;2064576;28;20248;-71
2021/07/16 02:20:28;;;;;;;1.07;0.97;;;13.50;99.90;;;;;;2064447;28;20665;-71
2021/07/16 02:21:29;;;;;;;0.63;0.63;;;13.50;99.90;;;;;;2055967;28;20199;-72
2021/07/16 02:22:29;;;;;;;0.70;0.70;;;13.60;99.90;;;;;;2056022;28;20207;-72
2021/07/16 02:23:30;;;;;;;0.77;0.77;;;13.60;99.90;;;;;;2072178;28;20205;-71
2021/07/16 02:24:33;;;;;;;0.70;0.70;;;13.60;99.90;;;;;;2072196;28;20220;-71
2021/07/16 02:25:34;;;;;;;0.40;0.40;;;13.60;99.90;;;;;;2064104;28;20178;-71
2021/07/16 02:26:37;;;;;;;0.70;0.70;;;13.50;99.90;;;;;;2064687;28;20205;-71
2021/07/16 02:27:38;;;;;;;0.70;0.70;;;13.60;99.90;;;;;;2072184;28;20181;-71
2021/07/16 02:28:39;;;;;;;0.73;0.70;;;13.60;99.90;;;;;;2072187;28;20232;-71
2021/07/16 02:29:40;;;;;;;0.80;0.80;;;13.50;99.90;;;;;;2064469;28;20178;-71
2021/07/16 02:30:41;;;;;;;0.63;0.63;;;13.50;99.90;;;;;;2064453;28;20573;-70
2021/07/16 02:31:41;;;;;;;0.73;0.73;;;13.50;99.90;;;;;;2072103;28;20189;-71
2021/07/16 02:32:43;;;;;;;0.50;0.50;;;13.40;99.90;;;;;;2072183;28;21194;-71
2021/07/16 02:33:43;;;;;;;0.77;0.77;;;13.40;99.90;;;;;;2055739;28;20176;-71
2021/07/16 02:34:44;;;;;;;0.70;0.70;;;13.40;99.90;;;;;;2063978;28;20278;-71
2021/07/16 02:35:46;;;;;;;0.60;0.60;;;13.40;99.90;;;;;;2071943;28;20177;-72
2021/07/16 02:36:48;;;;;;;0.45;0.45;;;13.40;99.90;;;;;;2072062;28;20178;-72
2021/07/16 02:37:49;;;;;;;0.77;0.77;;;13.40;99.90;;;;;;2071985;28;20185;-72
2021/07/16 02:38:50;;;;;;;0.87;0.87;;;13.40;99.90;;;;;;2055818;28;20183;-72
2021/07/16 02:39:51;;;;;;;2.00;1.27;;;13.40;99.90;;;;;;2055882;28;20428;-71
2021/07/16 02:40:53;;;;;;;0.73;0.73;;;13.40;99.90;;;;;;2071834;28;20576;-72
2021/07/16 02:41:54;;;;;;;0.88;0.88;;;13.50;99.90;;;;;;2071886;28;20178;-72
2021/07/16 02:42:55;;;;;;;1.47;1.37;;;13.50;99.90;;;;;;2055934;28;20176;-72
2021/07/16 02:43:55;;;;;;;0.80;0.60;;;13.50;99.90;;;;;;2063893;28;20214;-72
2021/07/16 02:44:56;;;;;;;0.90;0.90;;;13.50;99.90;;;;;;2072033;28;20190;-71
2021/07/16 02:45:57;;;;;;;1.77;1.50;;;13.50;99.90;;;;;;2063882;28;20187;-72
2021/07/16 02:46:58;;;;;;;1.50;1.40;;;13.60;99.90;;;;;;2063813;28;20733;-72
2021/07/16 02:47:59;;;;;;;1.83;1.67;;;13.60;99.90;;;;;;2055856;28;20187;-71
2021/07/16 02:48:59;;;;;;;1.23;1.13;;;13.60;99.90;;;;;;2063966;28;20261;-72
2021/07/16 02:50:00;;;;;;;1.00;0.87;;;13.70;99.90;;;;;;2071945;28;20421;-72
2021/07/16 02:51:01;;;;;;;1.20;0.97;;;13.70;99.90;;;;;;2055713;28;20608;-72
2021/07/16 02:52:02;;;;;;;1.27;1.17;;;13.80;99.90;;;;;;2055908;28;20190;-72
2021/07/16 02:53:09;;;;;;;1.07;1.07;;;13.80;99.90;;;;;;2071961;28;20573;-72
2021/07/16 02:54:09;;;;;;;1.05;1.05;;;13.80;99.90;;;;;;2056504;28;20203;-72
2021/07/16 02:55:12;;;;;;;1.30;1.20;;;13.80;99.90;;;;;;2057339;28;20724;-72
2021/07/16 02:56:12;;;;;;;1.02;1.00;;;13.90;99.90;;;;;;2065288;28;20260;-72
2021/07/16 02:57:13;;;;;;;1.00;0.87;;;13.90;99.90;;;;;;2065336;28;20182;-71
2021/07/16 02:58:15;;;;;;;1.70;1.17;;;13.90;99.90;;;;;;2065449;28;20170;-72
2021/07/16 02:59:15;;;;;;;0.80;0.80;;;13.90;99.90;;;;;;2065360;28;20191;-71
2021/07/16 03:00:23;;;;;;;0.77;0.77;;;14.00;99.90;;;;;;2057149;28;20231;-72
2021/07/16 03:01:24;;;;;;;1.50;1.40;;;14.00;99.90;;;;;;2058357;28;20585;-72
2021/07/16 03:02:37;;;;;;;1.23;1.13;;;14.00;99.90;;;;;;2057309;28;20206;-72
2021/07/16 03:03:38;;;;;;;1.38;1.27;;;14.10;99.90;;;;;;2057531;28;20639;-72
2021/07/16 03:04:39;;;;;;;1.53;1.43;;;14.10;99.90;;;;;;2065344;28;20174;-71
2021/07/16 03:05:40;;;;;;;1.88;1.70;;;14.10;99.90;;;;;;2065302;28;20171;-72
2021/07/16 03:06:42;;;;;;;1.57;1.47;;;14.10;99.90;;;;;;2065275;28;20886;-72
2021/07/16 03:07:43;;;;;;;1.48;1.38;;;14.20;99.90;;;;;;2065292;28;20206;-72
2021/07/16 03:08:46;;;;;;;1.27;1.10;;;14.10;99.90;;;;;;2065262;28;20579;-72
2021/07/16 03:09:46;;;;;;;1.67;1.52;;;14.10;99.90;;;;;;2065123;28;20182;-72
2021/07/16 03:10:47;;;;;;;1.30;1.20;;;14.10;99.90;;;;;;2057655;28;20191;-71
2021/07/16 03:11:48;;;;;;;1.13;1.13;;;14.10;99.90;;;;;;2057781;28;20199;-72
2021/07/16 03:12:50;;;;;;;1.60;1.50;;;14.00;99.90;;;;;;2065113;28;20265;-73
2021/07/16 03:13:51;;;;;;;2.72;1.65;;;14.00;99.90;;;;;;2056972;28;20202;-71
2021/07/16 03:14:52;;;;;;;2.30;0.77;;;14.00;99.90;;;;;;2057147;28;20262;-71
2021/07/16 03:15:52;;;;;;;2.23;1.73;;;14.00;99.90;;;;;;2057716;28;20310;-72
2021/07/16 03:16:53;;;;;;;1.57;1.13;;;14.00;99.90;;;;;;2057781;28;20187;-72
2021/07/16 03:17:55;;;;;;;1.00;1.00;;;14.00;99.90;;;;;;2057829;28;20258;-72
2021/07/16 03:19:02;;;;;;;1.38;1.25;;;14.00;99.90;;;;;;2057769;28;20267;-72
2021/07/16 03:20:10;;;;;;;1.63;1.48;;;14.00;99.90;;;;;;2057675;28;20187;-71
2021/07/16 03:21:11;;;;;;;3.13;1.45;;;14.00;99.90;;;;;;2065081;28;20234;-71
2021/07/16 03:22:12;;;;;;;0.83;0.83;;;14.00;99.90;;;;;;2057249;28;20175;-72
2021/07/16 03:23:16;;;;;;;1.42;1.33;;;14.00;99.90;;;;;;2057072;28;20179;-72
2021/07/16 03:24:19;;;;;;;1.48;1.38;;;14.00;99.90;;;;;;2065290;28;20178;-72
2021/07/16 03:25:21;;;;;;;1.30;1.20;;;14.00;99.90;;;;;;2057215;28;20238;-72
2021/07/16 03:26:22;;;;;;;0.93;0.93;;;14.00;99.90;;;;;;2057160;28;20592;-72
2021/07/16 03:27:23;;;;;;;1.97;1.00;;;14.00;99.90;;;;;;2057073;28;20250;-72
2021/07/16 03:28:23;;;;;;;1.60;1.50;;;14.00;99.90;;;;;;2057169;28;20283;-72
2021/07/16 03:29:24;;;;;;;1.07;1.03;;;14.00;99.90;;;;;;2057718;28;20186;-72
2021/07/16 03:30:31;;;;;;;1.93;1.70;;;14.00;99.90;;;;;;2057592;28;20257;-71
2021/07/16 03:31:31;;;;;;;1.73;1.10;;;14.00;99.90;;;;;;2057620;28;20202;-72
2021/07/16 03:32:32;;;;;;;1.83;1.67;;;14.00;99.90;;;;;;2065181;28;20309;-72
2021/07/16 03:33:33;;;;;;;1.40;1.30;;;14.00;99.90;;;;;;2065143;28;20218;-72
2021/07/16 03:34:34;;;;;;;1.40;1.30;;;14.00;99.90;;;;;;2065465;28;20178;-72
2021/07/16 03:35:35;;;;;;;2.30;1.30;;;14.00;99.90;;;;;;2059036;28;20175;-72
2021/07/16 03:36:36;;;;;;;0.77;0.77;;;13.90;99.90;;;;;;2049184;29;20172;-72
2021/07/16 03:37:37;;;;;;;4.77;1.27;;;13.90;99.90;;;;;;2057691;28;20533;-71
2021/07/16 03:38:38;;;;;;;1.50;1.40;;;13.90;99.90;;;;;;2057083;28;20171;-73
2021/07/16 03:39:38;;;;;;;1.63;1.47;;;13.90;99.90;;;;;;2056946;28;20258;-71
2021/07/16 03:40:39;;;;;;;1.30;1.20;;;13.90;99.90;;;;;;2057722;28;20199;-71
2021/07/16 03:41:40;;;;;;;1.87;1.77;;;13.90;99.90;;;;;;2056941;28;20210;-72
2021/07/16 03:42:42;;;;;;;3.00;1.53;;;13.90;99.90;;;;;;2049070;29;20847;-72
2021/07/16 03:43:43;;;;;;;2.08;1.33;;;13.90;99.90;;;;;;2049212;28;20180;-72
2021/07/16 03:44:44;;;;;;;1.73;1.63;;;13.90;99.90;;;;;;2057729;28;20205;-72
2021/07/16 03:45:44;;;;;;;3.57;1.67;;;13.90;99.90;;;;;;2057112;28;20175;-71
2021/07/16 03:46:45;;;;;;;1.30;1.30;;;13.90;99.90;;;;;;2057051;28;20670;-71
2021/07/16 03:47:48;;;;;;;2.00;1.80;;;14.00;99.90;;;;;;2057571;28;20206;-72
2021/07/16 03:48:49;;;;;;;1.20;1.20;;;14.00;99.90;;;;;;2048973;29;20235;-72
2021/07/16 03:49:50;;;;;;;2.17;2.07;;;14.00;99.90;;;;;;2048871;29;20270;-72
2021/07/16 03:50:50;;;;;;;1.90;1.70;;;14.00;99.90;;;;;;2048697;29;20254;-72
2021/07/16 03:51:51;;;;;;;1.73;1.63;;;14.10;99.90;;;;;;2048843;29;20227;-72
2021/07/16 03:52:52;;;;;;;1.17;1.17;;;14.10;99.90;;;;;;2056958;28;20190;-72
2021/07/16 03:53:53;;;;;;;0.97;0.97;;;14.20;99.90;;;;;;2056791;28;20301;-72
2021/07/16 03:54:54;;;;;;;0.97;0.97;;;14.20;99.90;;;;;;2048909;29;20184;-72
2021/07/16 03:55:54;;;;;;;1.57;1.47;;;14.20;99.90;;;;;;2048915;29;20180;-72
2021/07/16 03:56:55;;;;;;;1.20;1.20;;;14.30;99.90;;;;;;2056939;28;20214;-72
2021/07/16 03:57:57;;;;;;;2.10;1.97;;;14.30;99.90;;;;;;2056873;28;20187;-72
2021/07/16 03:58:57;;;;;;;1.30;1.20;;;14.30;99.90;;;;;;2064860;28;20281;-72
2021/07/16 04:00:03;;;;;;;1.17;1.00;;;14.30;99.90;;;;;;2064851;28;20182;-72
2021/07/16 04:01:04;;;;;;;1.33;1.23;;;14.30;99.90;;;;;;2056590;28;20269;-72
2021/07/16 04:02:05;;;;;;;1.20;1.10;;;14.40;99.90;;;;;;2056911;28;20678;-72
2021/07/16 04:03:05;;;;;;;1.60;1.50;;;14.40;99.90;;;;;;2056739;28;20649;-72
2021/07/16 04:04:06;;;;;;;1.47;1.37;;;14.50;99.90;;;;;;2056797;28;20218;-72
2021/07/16 04:05:07;;;;;;;1.40;1.30;;;14.50;99.90;;;;;;2056460;28;20187;-71
2021/07/16 04:06:10;;;;;;;1.77;1.50;;;14.50;99.90;;;;;;2056742;28;20179;-72
2021/07/16 04:07:16;;;;;;;1.35;0.95;;;14.50;99.90;;;;;;2056836;28;20618;-72
2021/07/16 04:08:18;;;;;;;1.40;1.33;;;14.50;99.90;;;;;;2057510;28;20186;-72
2021/07/16 04:09:30;;;;;;;1.70;1.60;;;14.50;99.90;;;;;;2057350;28;20194;-72
2021/07/16 04:10:36;;;;;;;1.30;1.20;;;14.50;99.90;;;;;;2056525;28;20167;-72
2021/07/16 04:11:37;;;;;;;1.98;1.80;;;14.50;99.90;;;;;;2057139;28;20282;-72
2021/07/16 04:12:38;;;;;;;1.98;1.80;;;14.60;99.90;;;;;;2057597;28;20190;-72
2021/07/16 04:13:39;;;;;;;3.13;1.17;;;14.60;99.90;;;;;;2057351;28;20211;-72
2021/07/16 04:14:42;;;;;;;1.10;1.10;;;14.60;99.90;;;;;;2057122;28;20179;-72
2021/07/16 04:15:43;;;;;;;1.52;1.42;;;14.60;99.90;;;;;;2057116;28;20183;-72
2021/07/16 04:16:44;;;;;;;1.00;1.00;;;14.60;99.90;;;;;;2049181;29;20188;-72
2021/07/16 04:17:45;;;;;;;0.87;0.80;;;14.60;99.90;;;;;;2049182;29;20520;-72
2021/07/16 04:18:45;;;;;;;1.67;1.50;;;14.60;99.90;;;;;;2057708;28;20225;-72
2021/07/16 04:19:47;;;;;;;1.70;1.20;;;14.60;99.90;;;;;;2057122;28;20175;-72
2021/07/16 04:20:48;;;;;;;1.52;1.23;;;14.60;99.90;;;;;;2049105;29;20214;-71
2021/07/16 04:21:48;;;;;;;1.00;1.00;;;14.60;99.90;;;;;;2057128;28;20293;-72
2021/07/16 04:22:49;;;;;;;1.83;1.00;;;14.60;99.90;;;;;;2057138;28;20274;-72
2021/07/16 04:23:50;;;;;;;2.27;2.07;;;14.60;99.90;;;;;;2049182;29;20179;-72
2021/07/16 04:24:53;;;;;;;1.57;1.47;;;14.60;99.90;;;;;;2057268;28;20234;-72
2021/07/16 04:25:53;;;;;;;2.25;1.40;;;14.60;99.90;;;;;;2057690;28;20175;-71
2021/07/16 04:26:54;;;;;;;1.87;1.77;;;14.70;99.90;;;;;;2057315;28;20175;-72
2021/07/16 04:27:57;;;;;;;1.13;1.03;;;14.70;99.90;;;;;;2049092;29;20223;-72
2021/07/16 04:28:57;;;;;;;2.20;1.58;;;14.60;99.90;;;;;;2049074;29;20184;-72
2021/07/16 04:29:58;;;;;;;1.10;1.03;;;14.60;99.90;;;;;;2048968;28;20219;-72
2021/07/16 04:30:59;;;;;;;1.80;1.70;;;14.60;99.90;;;;;;2057049;28;20203;-72
2021/07/16 04:32:01;;;;;;;1.50;1.40;;;14.60;99.90;;;;;;2056876;28;20273;-72
2021/07/16 04:33:05;;;;;;;1.27;1.17;;;14.60;99.90;;;;;;2049168;29;20231;-72
2021/07/16 04:34:05;;;;;;;1.77;1.15;;;14.60;99.90;;;;;;2049077;28;20865;-72
2021/07/16 04:35:08;;;;;;;1.40;1.30;;;14.60;99.90;;;;;;2049127;29;20183;-71
2021/07/16 04:36:09;;;;;;;0.73;0.73;;;14.60;99.90;;;;;;2049191;28;20191;-72
2021/07/16 04:37:10;;;;;;;1.30;1.20;;;14.60;99.90;;;;;;2049200;28;20331;-73
2021/07/16 04:38:11;;;;;;;1.52;1.42;;;14.60;99.90;;;;;;2056972;28;20175;-72
2021/07/16 04:39:12;;;;;;;1.07;1.03;;;14.60;99.90;;;;;;2057175;28;20269;-71
2021/07/16 04:40:19;;;;;;;1.08;1.08;;;14.60;99.90;;;;;;2057294;28;20222;-74
2021/07/16 04:41:20;;;;;;;0.82;0.82;;;14.50;99.90;;;;;;2057635;28;20574;-72
2021/07/16 04:42:21;;;;;;;0.53;0.53;;;14.60;99.90;;;;;;2057589;28;20182;-72
2021/07/16 04:43:22;;;;;;;0.93;0.85;;;14.60;99.90;;;;;;2057723;28;20595;-72
2021/07/16 04:44:23;;;;;;;1.33;1.23;;;14.60;99.90;;;;;;2057425;28;20215;-73
2021/07/16 04:45:24;;;;;;;1.53;1.00;;;14.60;99.90;;;;;;2057619;28;20178;-72
2021/07/16 04:46:25;;;;;;;0.90;0.90;;;14.60;99.90;;;;;;2056917;28;20191;-72
2021/07/16 04:47:26;;;;;;;1.33;0.97;;;14.50;99.90;;;;;;2049018;29;20203;-71
2021/07/16 04:48:27;;;;;;;0.90;0.87;;;14.60;99.90;;;;;;2041234;29;20181;-72
2021/07/16 04:49:28;;;;;;;0.90;0.90;;;14.60;99.90;;;;;;2049018;28;20188;-73
2021/07/16 04:50:28;;;;;;;1.07;1.07;;;14.60;99.90;;;;;;2048617;28;20194;-72
2021/07/16 04:51:32;;;;;;;0.80;0.80;;;14.60;99.90;;;;;;2048817;29;20435;-72
2021/07/16 04:52:38;;;;;;;0.98;0.98;;;14.60;99.90;;;;;;2057493;28;20179;-72
2021/07/16 04:53:39;;;;;;;1.15;1.05;;;14.70;99.90;;;;;;2052278;28;20819;-72
2021/07/16 04:54:40;;;;;;;1.43;0.90;;;14.70;99.90;;;;;;2049093;28;20212;-72
2021/07/16 04:55:40;;;;;;;0.90;0.90;;;14.70;99.90;;;;;;2049323;28;20660;-71
2021/07/16 04:56:44;;;;;;;1.17;1.13;;;14.70;99.90;;;;;;2040833;29;20702;-72
2021/07/16 04:57:45;;;;;;;0.77;0.77;;;14.70;99.90;;;;;;2041207;29;20234;-73
2021/07/16 04:58:46;;;;;;;0.60;0.60;;;14.70;99.90;;;;;;2048640;29;20643;-72
2021/07/16 04:59:47;;;;;;;0.90;0.88;;;14.70;99.90;;;;;;2040693;29;20612;-72
2021/07/16 05:00:48;;;;;;;1.00;1.00;;;14.70;99.90;;;;;;2040113;29;20184;-72
2021/07/16 05:01:49;;;;;;;1.07;1.00;;;14.70;99.90;;;;;;2040295;29;20203;-72
2021/07/16 05:02:50;;;;;;;1.67;1.08;;;14.70;99.90;;;;;;2048327;28;20191;-72
2021/07/16 05:03:52;;;;;;;1.33;1.23;;;14.70;99.90;;;;;;2048304;28;20558;-72
2021/07/16 05:04:53;;;;;;;0.98;0.82;;;14.80;99.90;;;;;;2048383;28;20584;-72
2021/07/16 05:05:54;;;;;;;0.87;0.87;;;14.80;99.90;;;;;;2048286;29;20199;-72
2021/07/16 05:06:54;;;;;;;0.80;0.80;;;14.80;99.90;;;;;;2040385;29;20616;-72
2021/07/16 05:07:55;;;;;;;0.90;0.90;;;14.80;99.90;;;;;;2048203;29;20339;-72
2021/07/16 05:08:59;;;;;;;0.90;0.90;;;14.80;99.90;;;;;;2040508;29;20293;-72
2021/07/16 05:10:02;;;;;;;1.08;1.02;;;14.80;99.90;;;;;;2048375;28;20187;-71
2021/07/16 05:11:02;;;;;;;1.00;1.00;;;14.80;99.90;;;;;;2055332;28;20260;-71
2021/07/16 05:12:04;;;;;;;1.57;1.47;;;14.80;99.90;;;;;;2040339;29;20266;-72
2021/07/16 05:13:05;;;;;;;0.88;0.88;;;14.80;99.90;;;;;;2048857;28;20187;-72
2021/07/16 05:14:05;;;;;;;1.10;0.90;;;14.80;99.90;;;;;;2040213;29;20216;-72
2021/07/16 05:15:07;;;;;;;1.13;1.07;;;14.90;99.90;;;;;;2040342;29;20186;-72
2021/07/16 05:16:11;;;;;;;2.15;1.15;;;14.90;99.90;;;;;;2047469;28;20179;-72
2021/07/16 05:17:11;;;;;;;1.75;1.30;;;14.90;99.90;;;;;;2047983;28;20275;-72
2021/07/16 05:18:12;;;;;;;0.73;0.70;;;15.00;99.90;;;;;;2048146;29;20231;-72
2021/07/16 05:19:13;;;;;;;0.77;0.77;;;15.10;99.90;;;;;;2056212;28;20184;-72
2021/07/16 05:20:14;;;;;;;1.00;0.97;;;15.10;99.90;;;;;;2047481;29;20176;-72
2021/07/16 05:21:15;;;;;;;2.70;1.13;;;15.20;99.90;;;;;;2048094;28;20199;-71
2021/07/16 05:22:15;;;;;;;0.63;0.63;;;15.20;99.90;;;;;;2048069;29;20180;-72